sensor_id;sensor_type;location;lat;lon;timestamp;noise_LAeq;noise_LA_min;noise_LA_max;noise_LA01;noise_LA95
66335;Laerm;53138;51.496;6.410;2023-06-04T00:00:08;41.03;35.51;46.45;;
66335;Laerm;53138;51.496;6.410;2023-06-04T00:00:19;39.75;34.37;47.63;;
66335;Laerm;53138;51.496;6.410;2023-06-04T00:00:29;39.45;35.59;46.15;;
66335;Laerm;53138;51.496;6.410;2023-06-04T00:00:39;37.71;34.03;41.64;;
66335;Laerm;53138;51.496;6.410;2023-06-04T00:00:50;38.13;34.28;45.15;;
66335;Laerm;53138;51.496;6.410;2023-06-04T00:01:00;37.34;34.18;41.07;;
66335;Laerm;53138;51.496;6.410;2023-06-04T00:01:10;35.49;32.85;38.33;;
66335;Laerm;53138;51.496;6.410;2023-06-04T00:01:21;36.87;33.85;40.06;;
66335;Laerm;53138;51.496;6.410;2023-06-04T00:01:31;37.55;33.54;42.57;;
66335;Laerm;53138;51.496;6.410;2023-06-04T00:01:41;36.73;32.95;40.26;;
66335;Laerm;53138;51.496;6.410;2023-06-04T00:01:54;36.28;33.00;41.58;;
66335;Laerm;53138;51.496;6.410;2023-06-04T00:02:05;36.16;32.61;39.69;;
66335;Laerm;53138;51.496;6.410;2023-06-04T00:02:15;35.09;32.41;39.04;;
66335;Laerm;53138;51.496;6.410;2023-06-04T00:02:25;34.41;32.64;37.37;;
66335;Laerm;53138;51.496;6.410;2023-06-04T00:02:35;34.16;32.01;37.02;;
66335;Laerm;53138;51.496;6.410;2023-06-04T00:02:46;33.81;31.32;36.53;;
66335;Laerm;53138;51.496;6.410;2023-06-04T00:02:56;34.28;31.74;37.63;;
66335;Laerm;53138;51.496;6.410;2023-06-04T00:03:06;36.68;33.02;41.70;;
66335;Laerm;53138;51.496;6.410;2023-06-04T00:03:16;38.35;35.27;42.70;;
66335;Laerm;53138;51.496;6.410;2023-06-04T00:03:27;39.39;35.47;44.91;;
66335;Laerm;53138;51.496;6.410;2023-06-04T00:03:37;42.11;35.94;48.07;;
66335;Laerm;53138;51.496;6.410;2023-06-04T00:03:47;37.54;34.45;41.65;;
66335;Laerm;53138;51.496;6.410;2023-06-04T00:03:57;38.58;34.49;42.87;;
66335;Laerm;53138;51.496;6.410;2023-06-04T00:04:07;42.57;37.76;48.58;;
66335;Laerm;53138;51.496;6.410;2023-06-04T00:04:18;42.33;37.45;50.01;;
66335;Laerm;53138;51.496;6.410;2023-06-04T00:04:28;39.65;35.07;43.81;;
66335;Laerm;53138;51.496;6.410;2023-06-04T00:04:38;37.81;34.23;43.14;;
66335;Laerm;53138;51.496;6.410;2023-06-04T00:04:48;37.73;34.42;41.97;;
66335;Laerm;53138;51.496;6.410;2023-06-04T00:04:59;38.46;35.73;41.58;;
66335;Laerm;53138;51.496;6.410;2023-06-04T00:05:10;40.29;35.71;43.52;;
66335;Laerm;53138;51.496;6.410;2023-06-04T00:05:21;37.31;34.53;40.47;;
66335;Laerm;53138;51.496;6.410;2023-06-04T00:05:35;38.30;33.83;45.83;;
66335;Laerm;53138;51.496;6.410;2023-06-04T00:05:45;40.07;34.49;45.12;;
66335;Laerm;53138;51.496;6.410;2023-06-04T00:05:56;39.66;35.81;44.32;;
66335;Laerm;53138;51.496;6.410;2023-06-04T00:06:06;38.74;35.22;44.63;;
66335;Laerm;53138;51.496;6.410;2023-06-04T00:06:16;35.58;32.72;40.05;;
66335;Laerm;53138;51.496;6.410;2023-06-04T00:06:26;34.42;31.87;36.74;;
66335;Laerm;53138;51.496;6.410;2023-06-04T00:06:36;34.88;32.71;38.43;;
66335;Laerm;53138;51.496;6.410;2023-06-04T00:06:47;41.00;35.09;47.06;;
66335;Laerm;53138;51.496;6.410;2023-06-04T00:06:57;37.65;32.87;43.86;;
66335;Laerm;53138;51.496;6.410;2023-06-04T00:07:07;34.67;32.39;37.07;;
66335;Laerm;53138;51.496;6.410;2023-06-04T00:07:17;36.47;34.22;40.17;;
66335;Laerm;53138;51.496;6.410;2023-06-04T00:07:28;36.20;34.04;38.52;;
66335;Laerm;53138;51.496;6.410;2023-06-04T00:07:38;37.88;34.36;41.80;;
66335;Laerm;53138;51.496;6.410;2023-06-04T00:07:48;37.60;33.18;44.43;;
66335;Laerm;53138;51.496;6.410;2023-06-04T00:07:58;38.00;33.38;43.48;;
66335;Laerm;53138;51.496;6.410;2023-06-04T00:08:08;38.73;34.40;47.72;;
66335;Laerm;53138;51.496;6.410;2023-06-04T00:08:19;40.60;35.52;44.63;;
66335;Laerm;53138;51.496;6.410;2023-06-04T00:08:29;40.44;35.25;49.45;;
66335;Laerm;53138;51.496;6.410;2023-06-04T00:08:39;37.66;34.37;46.25;;
66335;Laerm;53138;51.496;6.410;2023-06-04T00:08:50;40.02;35.15;45.54;;
66335;Laerm;53138;51.496;6.410;2023-06-04T00:09:00;43.00;37.79;46.98;;
66335;Laerm;53138;51.496;6.410;2023-06-04T00:09:10;37.74;35.12;40.45;;
66335;Laerm;53138;51.496;6.410;2023-06-04T00:09:20;37.98;35.08;41.75;;
66335;Laerm;53138;51.496;6.410;2023-06-04T00:09:31;41.77;37.02;47.96;;
66335;Laerm;53138;51.496;6.410;2023-06-04T00:09:41;37.50;33.70;46.40;;
66335;Laerm;53138;51.496;6.410;2023-06-04T00:09:52;35.74;32.64;42.24;;
66335;Laerm;53138;51.496;6.410;2023-06-04T00:10:03;39.03;33.51;49.09;;
66335;Laerm;53138;51.496;6.410;2023-06-04T00:10:14;40.81;35.98;49.19;;
66335;Laerm;53138;51.496;6.410;2023-06-04T00:10:25;40.49;35.78;45.43;;
66335;Laerm;53138;51.496;6.410;2023-06-04T00:10:35;40.02;35.73;45.76;;
66335;Laerm;53138;51.496;6.410;2023-06-04T00:10:45;39.17;34.73;43.36;;
66335;Laerm;53138;51.496;6.410;2023-06-04T00:10:56;38.49;34.88;42.20;;
66335;Laerm;53138;51.496;6.410;2023-06-04T00:11:06;36.20;33.33;41.87;;
66335;Laerm;53138;51.496;6.410;2023-06-04T00:11:16;35.88;32.95;39.49;;
66335;Laerm;53138;51.496;6.410;2023-06-04T00:11:26;37.35;34.80;40.46;;
66335;Laerm;53138;51.496;6.410;2023-06-04T00:11:37;42.25;36.36;47.05;;
66335;Laerm;53138;51.496;6.410;2023-06-04T00:11:47;39.05;35.03;43.47;;
66335;Laerm;53138;51.496;6.410;2023-06-04T00:11:57;38.15;33.93;44.44;;
66335;Laerm;53138;51.496;6.410;2023-06-04T00:12:07;36.45;33.56;40.17;;
66335;Laerm;53138;51.496;6.410;2023-06-04T00:12:18;35.80;32.08;40.34;;
66335;Laerm;53138;51.496;6.410;2023-06-04T00:12:29;35.70;33.38;39.76;;
66335;Laerm;53138;51.496;6.410;2023-06-04T00:12:39;38.72;34.85;42.79;;
66335;Laerm;53138;51.496;6.410;2023-06-04T00:12:49;36.94;33.50;41.41;;
66335;Laerm;53138;51.496;6.410;2023-06-04T00:13:00;34.60;32.58;38.94;;
66335;Laerm;53138;51.496;6.410;2023-06-04T00:13:10;34.04;32.36;38.33;;
66335;Laerm;53138;51.496;6.410;2023-06-04T00:13:20;34.28;31.72;38.00;;
66335;Laerm;53138;51.496;6.410;2023-06-04T00:13:31;34.81;33.00;37.74;;
66335;Laerm;53138;51.496;6.410;2023-06-04T00:13:41;34.29;32.40;37.39;;
66335;Laerm;53138;51.496;6.410;2023-06-04T00:13:51;33.86;31.97;36.03;;
66335;Laerm;53138;51.496;6.410;2023-06-04T00:14:02;35.76;32.00;43.09;;
66335;Laerm;53138;51.496;6.410;2023-06-04T00:14:13;35.45;32.72;40.03;;
66335;Laerm;53138;51.496;6.410;2023-06-04T00:14:23;34.60;31.96;44.32;;
66335;Laerm;53138;51.496;6.410;2023-06-04T00:14:34;36.16;32.75;41.78;;
66335;Laerm;53138;51.496;6.410;2023-06-04T00:14:44;33.36;31.55;36.49;;
66335;Laerm;53138;51.496;6.410;2023-06-04T00:14:54;32.68;30.65;34.54;;
66335;Laerm;53138;51.496;6.410;2023-06-04T00:15:05;34.86;31.86;46.12;;
66335;Laerm;53138;51.496;6.410;2023-06-04T00:15:15;36.08;32.36;44.57;;
66335;Laerm;53138;51.496;6.410;2023-06-04T00:15:26;36.53;32.57;45.61;;
66335;Laerm;53138;51.496;6.410;2023-06-04T00:15:36;36.89;33.54;41.20;;
66335;Laerm;53138;51.496;6.410;2023-06-04T00:15:47;38.92;35.54;40.79;;
66335;Laerm;53138;51.496;6.410;2023-06-04T00:15:57;35.45;33.19;40.14;;
66335;Laerm;53138;51.496;6.410;2023-06-04T00:16:07;34.93;32.69;37.86;;
66335;Laerm;53138;51.496;6.410;2023-06-04T00:16:17;34.79;32.09;40.87;;
66335;Laerm;53138;51.496;6.410;2023-06-04T00:16:28;41.26;35.73;46.66;;
66335;Laerm;53138;51.496;6.410;2023-06-04T00:16:38;38.93;33.73;47.43;;
66335;Laerm;53138;51.496;6.410;2023-06-04T00:16:48;37.57;34.25;42.30;;
66335;Laerm;53138;51.496;6.410;2023-06-04T00:16:58;38.41;33.23;43.79;;
66335;Laerm;53138;51.496;6.410;2023-06-04T00:17:09;41.95;36.47;46.24;;
66335;Laerm;53138;51.496;6.410;2023-06-04T00:17:19;38.97;34.83;43.05;;
66335;Laerm;53138;51.496;6.410;2023-06-04T00:17:29;34.79;31.38;40.67;;
66335;Laerm;53138;51.496;6.410;2023-06-04T00:17:40;33.22;30.91;35.99;;
66335;Laerm;53138;51.496;6.410;2023-06-04T00:17:50;34.13;31.86;38.60;;
66335;Laerm;53138;51.496;6.410;2023-06-04T00:18:00;33.19;30.90;37.63;;
66335;Laerm;53138;51.496;6.410;2023-06-04T00:18:11;33.26;31.45;35.87;;
66335;Laerm;53138;51.496;6.410;2023-06-04T00:18:23;32.61;30.83;35.30;;
66335;Laerm;53138;51.496;6.410;2023-06-04T00:18:33;32.30;30.36;34.58;;
66335;Laerm;53138;51.496;6.410;2023-06-04T00:18:43;33.23;30.99;37.29;;
66335;Laerm;53138;51.496;6.410;2023-06-04T00:18:54;33.86;31.48;38.93;;
66335;Laerm;53138;51.496;6.410;2023-06-04T00:19:04;34.46;31.87;36.86;;
66335;Laerm;53138;51.496;6.410;2023-06-04T00:19:14;34.79;32.28;37.17;;
66335;Laerm;53138;51.496;6.410;2023-06-04T00:19:24;42.30;35.04;48.78;;
66335;Laerm;53138;51.496;6.410;2023-06-04T00:19:37;41.01;36.30;48.29;;
66335;Laerm;53138;51.496;6.410;2023-06-04T00:19:48;35.98;33.64;39.91;;
66335;Laerm;53138;51.496;6.410;2023-06-04T00:19:58;38.30;34.30;43.94;;
66335;Laerm;53138;51.496;6.410;2023-06-04T00:20:08;36.95;33.47;41.60;;
66335;Laerm;53138;51.496;6.410;2023-06-04T00:20:19;35.20;32.68;38.28;;
66335;Laerm;53138;51.496;6.410;2023-06-04T00:20:29;34.65;31.80;39.52;;
66335;Laerm;53138;51.496;6.410;2023-06-04T00:20:39;34.54;32.16;42.93;;
66335;Laerm;53138;51.496;6.410;2023-06-04T00:20:50;33.93;31.92;37.50;;
66335;Laerm;53138;51.496;6.410;2023-06-04T00:21:00;35.77;32.58;41.82;;
66335;Laerm;53138;51.496;6.410;2023-06-04T00:21:10;39.79;34.67;44.50;;
66335;Laerm;53138;51.496;6.410;2023-06-04T00:21:21;37.15;33.78;41.85;;
66335;Laerm;53138;51.496;6.410;2023-06-04T00:21:31;34.93;32.81;41.42;;
66335;Laerm;53138;51.496;6.410;2023-06-04T00:21:42;36.22;31.93;44.65;;
66335;Laerm;53138;51.496;6.410;2023-06-04T00:21:52;35.55;32.78;46.79;;
66335;Laerm;53138;51.496;6.410;2023-06-04T00:22:02;36.43;32.97;41.85;;
66335;Laerm;53138;51.496;6.410;2023-06-04T00:22:12;36.22;32.53;40.58;;
66335;Laerm;53138;51.496;6.410;2023-06-04T00:22:23;35.18;32.82;38.98;;
66335;Laerm;53138;51.496;6.410;2023-06-04T00:22:34;37.01;33.23;41.25;;
66335;Laerm;53138;51.496;6.410;2023-06-04T00:22:44;37.59;33.61;45.77;;
66335;Laerm;53138;51.496;6.410;2023-06-04T00:22:54;34.72;31.65;37.41;;
66335;Laerm;53138;51.496;6.410;2023-06-04T00:23:04;34.19;32.24;38.99;;
66335;Laerm;53138;51.496;6.410;2023-06-04T00:23:15;33.80;31.84;36.96;;
66335;Laerm;53138;51.496;6.410;2023-06-04T00:23:25;35.05;31.75;42.80;;
66335;Laerm;53138;51.496;6.410;2023-06-04T00:23:35;34.71;31.51;40.41;;
66335;Laerm;53138;51.496;6.410;2023-06-04T00:23:45;34.31;32.09;36.80;;
66335;Laerm;53138;51.496;6.410;2023-06-04T00:23:56;35.43;32.45;41.65;;
66335;Laerm;53138;51.496;6.410;2023-06-04T00:24:06;36.04;33.57;39.20;;
66335;Laerm;53138;51.496;6.410;2023-06-04T00:24:17;36.35;32.93;41.19;;
66335;Laerm;53138;51.496;6.410;2023-06-04T00:24:27;36.89;32.64;43.64;;
66335;Laerm;53138;51.496;6.410;2023-06-04T00:24:38;36.44;33.48;40.38;;
66335;Laerm;53138;51.496;6.410;2023-06-04T00:24:51;37.42;33.72;45.32;;
66335;Laerm;53138;51.496;6.410;2023-06-04T00:25:01;35.43;32.70;40.13;;
66335;Laerm;53138;51.496;6.410;2023-06-04T00:25:11;35.50;32.31;42.26;;
66335;Laerm;53138;51.496;6.410;2023-06-04T00:25:22;38.32;32.69;50.99;;
66335;Laerm;53138;51.496;6.410;2023-06-04T00:25:32;35.47;32.44;44.26;;
66335;Laerm;53138;51.496;6.410;2023-06-04T00:25:42;33.42;31.52;36.57;;
66335;Laerm;53138;51.496;6.410;2023-06-04T00:25:52;32.90;31.09;35.20;;
66335;Laerm;53138;51.496;6.410;2023-06-04T00:26:03;33.20;31.34;35.53;;
66335;Laerm;53138;51.496;6.410;2023-06-04T00:26:13;32.77;31.07;37.01;;
66335;Laerm;53138;51.496;6.410;2023-06-04T00:26:23;32.76;31.05;36.78;;
66335;Laerm;53138;51.496;6.410;2023-06-04T00:26:33;33.43;31.76;36.97;;
66335;Laerm;53138;51.496;6.410;2023-06-04T00:26:44;32.68;31.19;33.91;;
66335;Laerm;53138;51.496;6.410;2023-06-04T00:26:54;32.77;31.15;34.76;;
66335;Laerm;53138;51.496;6.410;2023-06-04T00:27:05;32.65;31.07;34.84;;
66335;Laerm;53138;51.496;6.410;2023-06-04T00:27:16;34.25;30.80;42.67;;
66335;Laerm;53138;51.496;6.410;2023-06-04T00:27:26;35.15;31.35;45.98;;
66335;Laerm;53138;51.496;6.410;2023-06-04T00:27:36;33.06;31.38;40.41;;
66335;Laerm;53138;51.496;6.410;2023-06-04T00:27:47;32.90;31.07;35.46;;
66335;Laerm;53138;51.496;6.410;2023-06-04T00:27:57;33.21;30.86;35.69;;
66335;Laerm;53138;51.496;6.410;2023-06-04T00:28:07;33.17;30.99;35.99;;
66335;Laerm;53138;51.496;6.410;2023-06-04T00:28:17;32.17;30.67;34.16;;
66335;Laerm;53138;51.496;6.410;2023-06-04T00:28:28;32.55;30.70;38.62;;
66335;Laerm;53138;51.496;6.410;2023-06-04T00:28:38;32.63;30.72;34.64;;
66335;Laerm;53138;51.496;6.410;2023-06-04T00:28:48;32.63;30.79;34.30;;
66335;Laerm;53138;51.496;6.410;2023-06-04T00:28:58;32.58;30.88;34.21;;
66335;Laerm;53138;51.496;6.410;2023-06-04T00:29:08;32.29;30.50;34.24;;
66335;Laerm;53138;51.496;6.410;2023-06-04T00:29:19;33.89;31.76;37.33;;
66335;Laerm;53138;51.496;6.410;2023-06-04T00:29:29;33.10;31.15;35.06;;
66335;Laerm;53138;51.496;6.410;2023-06-04T00:29:39;33.35;31.41;35.37;;
66335;Laerm;53138;51.496;6.410;2023-06-04T00:29:50;34.33;31.56;40.76;;
66335;Laerm;53138;51.496;6.410;2023-06-04T00:30:00;35.58;32.95;40.11;;
66335;Laerm;53138;51.496;6.410;2023-06-04T00:30:11;36.61;32.73;43.90;;
66335;Laerm;53138;51.496;6.410;2023-06-04T00:30:21;34.76;32.96;37.45;;
66335;Laerm;53138;51.496;6.410;2023-06-04T00:30:31;36.95;33.42;40.71;;
66335;Laerm;53138;51.496;6.410;2023-06-04T00:30:42;35.04;32.47;38.35;;
66335;Laerm;53138;51.496;6.410;2023-06-04T00:30:52;36.30;33.44;43.15;;
66335;Laerm;53138;51.496;6.410;2023-06-04T00:31:04;38.53;34.55;44.25;;
66335;Laerm;53138;51.496;6.410;2023-06-04T00:31:14;38.28;34.88;44.38;;
66335;Laerm;53138;51.496;6.410;2023-06-04T00:31:25;43.78;36.83;49.21;;
66335;Laerm;53138;51.496;6.410;2023-06-04T00:31:36;41.70;36.45;47.13;;
66335;Laerm;53138;51.496;6.410;2023-06-04T00:31:46;39.01;34.95;44.75;;
66335;Laerm;53138;51.496;6.410;2023-06-04T00:31:57;37.23;33.59;44.79;;
66335;Laerm;53138;51.496;6.410;2023-06-04T00:32:07;36.24;33.48;39.58;;
66335;Laerm;53138;51.496;6.410;2023-06-04T00:32:18;36.07;33.21;38.78;;
66335;Laerm;53138;51.496;6.410;2023-06-04T00:32:28;38.03;34.22;44.63;;
66335;Laerm;53138;51.496;6.410;2023-06-04T00:32:38;38.96;34.02;47.44;;
66335;Laerm;53138;51.496;6.410;2023-06-04T00:32:49;36.10;33.46;41.40;;
66335;Laerm;53138;51.496;6.410;2023-06-04T00:33:00;36.86;33.91;41.31;;
66335;Laerm;53138;51.496;6.410;2023-06-04T00:33:11;35.93;32.60;42.12;;
66335;Laerm;53138;51.496;6.410;2023-06-04T00:33:21;36.95;33.65;39.99;;
66335;Laerm;53138;51.496;6.410;2023-06-04T00:33:31;34.60;32.12;41.83;;
66335;Laerm;53138;51.496;6.410;2023-06-04T00:33:41;33.85;31.20;42.84;;
66335;Laerm;53138;51.496;6.410;2023-06-04T00:33:52;32.64;31.01;34.41;;
66335;Laerm;53138;51.496;6.410;2023-06-04T00:34:05;32.35;30.54;34.88;;
66335;Laerm;53138;51.496;6.410;2023-06-04T00:34:16;34.40;32.69;44.42;;
66335;Laerm;53138;51.496;6.410;2023-06-04T00:34:27;33.60;31.11;35.78;;
66335;Laerm;53138;51.496;6.410;2023-06-04T00:34:37;33.22;31.68;35.34;;
66335;Laerm;53138;51.496;6.410;2023-06-04T00:34:51;36.65;33.14;40.92;;
66335;Laerm;53138;51.496;6.410;2023-06-04T00:35:01;37.67;32.79;44.90;;
66335;Laerm;53138;51.496;6.410;2023-06-04T00:35:11;35.67;32.68;40.31;;
66335;Laerm;53138;51.496;6.410;2023-06-04T00:35:22;34.82;32.11;40.65;;
66335;Laerm;53138;51.496;6.410;2023-06-04T00:35:32;34.21;32.23;37.86;;
66335;Laerm;53138;51.496;6.410;2023-06-04T00:35:42;37.84;32.56;50.63;;
66335;Laerm;53138;51.496;6.410;2023-06-04T00:35:53;40.39;33.40;45.54;;
66335;Laerm;53138;51.496;6.410;2023-06-04T00:36:03;33.62;31.83;35.52;;
66335;Laerm;53138;51.496;6.410;2023-06-04T00:36:13;32.98;31.08;36.16;;
66335;Laerm;53138;51.496;6.410;2023-06-04T00:36:24;34.01;31.94;37.85;;
66335;Laerm;53138;51.496;6.410;2023-06-04T00:36:34;34.77;32.68;36.87;;
66335;Laerm;53138;51.496;6.410;2023-06-04T00:36:44;34.05;31.91;36.73;;
66335;Laerm;53138;51.496;6.410;2023-06-04T00:36:55;33.37;31.88;35.11;;
66335;Laerm;53138;51.496;6.410;2023-06-04T00:37:05;33.65;31.41;36.31;;
66335;Laerm;53138;51.496;6.410;2023-06-04T00:37:15;33.56;31.36;37.69;;
66335;Laerm;53138;51.496;6.410;2023-06-04T00:37:25;37.80;32.62;46.31;;
66335;Laerm;53138;51.496;6.410;2023-06-04T00:37:36;38.33;33.48;45.22;;
66335;Laerm;53138;51.496;6.410;2023-06-04T00:37:46;34.85;32.26;40.04;;
66335;Laerm;53138;51.496;6.410;2023-06-04T00:37:56;33.17;31.18;35.47;;
66335;Laerm;53138;51.496;6.410;2023-06-04T00:38:06;33.10;31.41;34.80;;
66335;Laerm;53138;51.496;6.410;2023-06-04T00:38:16;32.73;31.25;34.34;;
66335;Laerm;53138;51.496;6.410;2023-06-04T00:38:27;34.52;31.35;38.40;;
66335;Laerm;53138;51.496;6.410;2023-06-04T00:38:37;38.91;34.36;43.26;;
66335;Laerm;53138;51.496;6.410;2023-06-04T00:38:48;34.78;31.96;37.73;;
66335;Laerm;53138;51.496;6.410;2023-06-04T00:38:58;32.52;30.56;37.41;;
66335;Laerm;53138;51.496;6.410;2023-06-04T00:39:08;32.51;30.56;36.79;;
66335;Laerm;53138;51.496;6.410;2023-06-04T00:39:18;33.29;31.06;35.92;;
66335;Laerm;53138;51.496;6.410;2023-06-04T00:39:29;32.98;30.71;38.26;;
66335;Laerm;53138;51.496;6.410;2023-06-04T00:39:39;32.88;30.96;35.03;;
66335;Laerm;53138;51.496;6.410;2023-06-04T00:39:50;36.93;32.93;41.01;;
66335;Laerm;53138;51.496;6.410;2023-06-04T00:40:00;35.37;32.46;40.68;;
66335;Laerm;53138;51.496;6.410;2023-06-04T00:40:11;32.52;30.91;33.93;;
66335;Laerm;53138;51.496;6.410;2023-06-04T00:40:21;32.91;30.59;35.14;;
66335;Laerm;53138;51.496;6.410;2023-06-04T00:40:31;34.00;30.80;38.12;;
66335;Laerm;53138;51.496;6.410;2023-06-04T00:40:42;33.61;31.34;36.45;;
66335;Laerm;53138;51.496;6.410;2023-06-04T00:40:52;33.74;30.74;35.55;;
66335;Laerm;53138;51.496;6.410;2023-06-04T00:41:02;35.67;32.22;40.49;;
66335;Laerm;53138;51.496;6.410;2023-06-04T00:41:12;35.51;32.95;38.98;;
66335;Laerm;53138;51.496;6.410;2023-06-04T00:41:23;35.19;32.67;37.63;;
66335;Laerm;53138;51.496;6.410;2023-06-04T00:41:33;33.79;31.33;38.16;;
66335;Laerm;53138;51.496;6.410;2023-06-04T00:41:43;32.89;31.26;34.77;;
66335;Laerm;53138;51.496;6.410;2023-06-04T00:41:53;32.12;30.69;33.94;;
66335;Laerm;53138;51.496;6.410;2023-06-04T00:42:04;32.59;31.11;35.11;;
66335;Laerm;53138;51.496;6.410;2023-06-04T00:42:15;38.02;31.35;46.28;;
66335;Laerm;53138;51.496;6.410;2023-06-04T00:42:25;40.18;33.34;47.49;;
66335;Laerm;53138;51.496;6.410;2023-06-04T00:42:35;35.25;32.96;39.13;;
66335;Laerm;53138;51.496;6.410;2023-06-04T00:42:45;35.75;32.30;40.54;;
66335;Laerm;53138;51.496;6.410;2023-06-04T00:42:56;34.14;32.05;37.96;;
66335;Laerm;53138;51.496;6.410;2023-06-04T00:43:06;33.72;31.55;37.52;;
66335;Laerm;53138;51.496;6.410;2023-06-04T00:43:16;33.49;31.41;36.17;;
66335;Laerm;53138;51.496;6.410;2023-06-04T00:43:26;39.17;32.82;46.37;;
66335;Laerm;53138;51.496;6.410;2023-06-04T00:43:37;37.58;32.47;43.79;;
66335;Laerm;53138;51.496;6.410;2023-06-04T00:43:47;33.70;31.69;37.66;;
66335;Laerm;53138;51.496;6.410;2023-06-04T00:44:06;32.69;30.82;34.94;;
66335;Laerm;53138;51.496;6.410;2023-06-04T00:44:16;33.12;30.99;35.92;;
66335;Laerm;53138;51.496;6.410;2023-06-04T00:44:27;33.69;31.22;43.27;;
66335;Laerm;53138;51.496;6.410;2023-06-04T00:44:38;33.57;31.49;35.78;;
66335;Laerm;53138;51.496;6.410;2023-06-04T00:44:54;37.25;32.52;41.66;;
66335;Laerm;53138;51.496;6.410;2023-06-04T00:45:07;34.21;31.72;37.70;;
66335;Laerm;53138;51.496;6.410;2023-06-04T00:45:19;32.96;30.33;35.55;;
66335;Laerm;53138;51.496;6.410;2023-06-04T00:45:30;34.07;30.75;40.84;;
66335;Laerm;53138;51.496;6.410;2023-06-04T00:45:41;32.91;31.18;35.27;;
66335;Laerm;53138;51.496;6.410;2023-06-04T00:45:52;32.85;30.88;36.16;;
66335;Laerm;53138;51.496;6.410;2023-06-04T00:46:02;32.70;31.03;34.55;;
66335;Laerm;53138;51.496;6.410;2023-06-04T00:46:13;32.44;30.74;34.27;;
66335;Laerm;53138;51.496;6.410;2023-06-04T00:46:28;32.55;30.69;36.32;;
66335;Laerm;53138;51.496;6.410;2023-06-04T00:46:38;32.82;30.78;36.09;;
66335;Laerm;53138;51.496;6.410;2023-06-04T00:46:49;33.66;30.55;36.97;;
66335;Laerm;53138;51.496;6.410;2023-06-04T00:46:59;32.99;30.96;37.85;;
66335;Laerm;53138;51.496;6.410;2023-06-04T00:47:11;33.00;30.67;34.48;;
66335;Laerm;53138;51.496;6.410;2023-06-04T00:47:22;33.21;30.54;36.79;;
66335;Laerm;53138;51.496;6.410;2023-06-04T00:47:32;32.17;30.41;35.51;;
66335;Laerm;53138;51.496;6.410;2023-06-04T00:47:43;32.15;30.33;36.14;;
66335;Laerm;53138;51.496;6.410;2023-06-04T00:47:53;32.86;30.64;37.44;;
66335;Laerm;53138;51.496;6.410;2023-06-04T00:48:03;34.04;31.89;38.36;;
66335;Laerm;53138;51.496;6.410;2023-06-04T00:48:14;36.60;32.05;42.29;;
66335;Laerm;53138;51.496;6.410;2023-06-04T00:48:24;39.87;33.05;44.29;;
66335;Laerm;53138;51.496;6.410;2023-06-04T00:48:37;35.60;31.76;44.16;;
66335;Laerm;53138;51.496;6.410;2023-06-04T00:48:48;36.12;31.51;42.55;;
66335;Laerm;53138;51.496;6.410;2023-06-04T00:48:58;32.92;30.81;36.94;;
66335;Laerm;53138;51.496;6.410;2023-06-04T00:49:09;32.96;30.96;39.74;;
66335;Laerm;53138;51.496;6.410;2023-06-04T00:49:22;37.54;33.06;42.09;;
66335;Laerm;53138;51.496;6.410;2023-06-04T00:49:32;36.85;33.60;41.13;;
66335;Laerm;53138;51.496;6.410;2023-06-04T00:49:42;36.03;33.03;38.87;;
66335;Laerm;53138;51.496;6.410;2023-06-04T00:49:54;36.73;33.36;42.53;;
66335;Laerm;53138;51.496;6.410;2023-06-04T00:50:06;37.67;33.08;44.34;;
66335;Laerm;53138;51.496;6.410;2023-06-04T00:50:17;37.28;33.72;43.54;;
66335;Laerm;53138;51.496;6.410;2023-06-04T00:50:27;36.40;32.92;42.30;;
66335;Laerm;53138;51.496;6.410;2023-06-04T00:50:38;36.18;33.09;39.76;;
66335;Laerm;53138;51.496;6.410;2023-06-04T00:50:49;40.72;36.50;45.02;;
66335;Laerm;53138;51.496;6.410;2023-06-04T00:51:01;36.84;33.05;42.89;;
66335;Laerm;53138;51.496;6.410;2023-06-04T00:51:11;33.33;31.44;34.84;;
66335;Laerm;53138;51.496;6.410;2023-06-04T00:51:22;33.66;31.86;35.69;;
66335;Laerm;53138;51.496;6.410;2023-06-04T00:51:33;35.70;31.85;44.64;;
66335;Laerm;53138;51.496;6.410;2023-06-04T00:51:43;36.52;32.50;40.80;;
66335;Laerm;53138;51.496;6.410;2023-06-04T00:51:54;36.21;32.41;42.32;;
66335;Laerm;53138;51.496;6.410;2023-06-04T00:52:05;35.16;31.50;42.75;;
66335;Laerm;53138;51.496;6.410;2023-06-04T00:52:15;32.35;30.68;36.57;;
66335;Laerm;53138;51.496;6.410;2023-06-04T00:52:26;32.79;31.04;35.00;;
66335;Laerm;53138;51.496;6.410;2023-06-04T00:52:36;32.80;30.46;38.04;;
66335;Laerm;53138;51.496;6.410;2023-06-04T00:52:47;32.25;30.51;36.66;;
66335;Laerm;53138;51.496;6.410;2023-06-04T00:52:57;34.10;31.20;37.70;;
66335;Laerm;53138;51.496;6.410;2023-06-04T00:53:08;38.94;33.47;43.15;;
66335;Laerm;53138;51.496;6.410;2023-06-04T00:53:19;34.67;31.82;39.63;;
66335;Laerm;53138;51.496;6.410;2023-06-04T00:53:30;33.27;30.95;40.45;;
66335;Laerm;53138;51.496;6.410;2023-06-04T00:53:40;32.88;30.62;39.39;;
66335;Laerm;53138;51.496;6.410;2023-06-04T00:53:51;34.10;30.77;41.61;;
66335;Laerm;53138;51.496;6.410;2023-06-04T00:54:02;37.33;32.09;46.28;;
66335;Laerm;53138;51.496;6.410;2023-06-04T00:54:19;34.67;30.95;39.89;;
66335;Laerm;53138;51.496;6.410;2023-06-04T00:54:30;35.37;32.38;42.27;;
66335;Laerm;53138;51.496;6.410;2023-06-04T00:54:42;35.16;32.09;39.21;;
66335;Laerm;53138;51.496;6.410;2023-06-04T00:54:52;34.91;32.46;38.15;;
66335;Laerm;53138;51.496;6.410;2023-06-04T00:55:04;40.10;34.72;44.89;;
66335;Laerm;53138;51.496;6.410;2023-06-04T00:55:14;38.31;35.16;45.42;;
66335;Laerm;53138;51.496;6.410;2023-06-04T00:55:27;41.67;37.00;45.76;;
66335;Laerm;53138;51.496;6.410;2023-06-04T00:55:38;37.12;33.31;43.52;;
66335;Laerm;53138;51.496;6.410;2023-06-04T00:55:48;33.79;31.49;36.61;;
66335;Laerm;53138;51.496;6.410;2023-06-04T00:55:58;33.57;31.18;36.42;;
66335;Laerm;53138;51.496;6.410;2023-06-04T00:56:09;33.77;30.82;38.07;;
66335;Laerm;53138;51.496;6.410;2023-06-04T00:56:19;35.17;32.31;38.39;;
66335;Laerm;53138;51.496;6.410;2023-06-04T00:56:29;38.96;32.17;46.17;;
66335;Laerm;53138;51.496;6.410;2023-06-04T00:56:40;35.12;31.42;43.21;;
66335;Laerm;53138;51.496;6.410;2023-06-04T00:56:50;33.42;31.20;36.59;;
66335;Laerm;53138;51.496;6.410;2023-06-04T00:57:00;32.93;30.41;42.12;;
66335;Laerm;53138;51.496;6.410;2023-06-04T00:57:10;32.00;30.33;36.27;;
66335;Laerm;53138;51.496;6.410;2023-06-04T00:57:21;32.85;30.55;35.27;;
66335;Laerm;53138;51.496;6.410;2023-06-04T00:57:32;35.13;32.07;38.19;;
66335;Laerm;53138;51.496;6.410;2023-06-04T00:57:43;35.75;32.07;40.85;;
66335;Laerm;53138;51.496;6.410;2023-06-04T00:57:53;36.64;33.78;39.77;;
66335;Laerm;53138;51.496;6.410;2023-06-04T00:58:03;37.88;34.10;42.77;;
66335;Laerm;53138;51.496;6.410;2023-06-04T00:58:14;38.05;33.25;45.44;;
66335;Laerm;53138;51.496;6.410;2023-06-04T00:58:25;34.68;32.06;38.06;;
66335;Laerm;53138;51.496;6.410;2023-06-04T00:58:39;33.58;31.07;36.52;;
66335;Laerm;53138;51.496;6.410;2023-06-04T00:58:49;33.51;31.23;42.07;;
66335;Laerm;53138;51.496;6.410;2023-06-04T00:59:00;32.46;30.46;36.04;;
66335;Laerm;53138;51.496;6.410;2023-06-04T00:59:11;32.15;30.42;33.96;;
66335;Laerm;53138;51.496;6.410;2023-06-04T00:59:21;32.65;30.58;37.22;;